Terminal Aerodrome Forecast
Issued by NWS

Home | Current Version | Previous Version | Text Only | Print | Product List | Glossary On
Versions: 1 2 3 4 5 6 7 8 9 10 11 12 13
000
FTUS46 KSEW 030538
TAFBLI
TAF
KBLI 030538Z 0306/0406 00000KT P6SM SCT070 BKN110
     FM030900 17007KT P6SM BKN025 OVC040
      TEMPO 0309/0313 SCT030 BKN050
     FM031800 17010KT P6SM BKN035 OVC080
     FM040200 17004KT P6SM SCT050 BKN100=

USA.gov is the U.S. government's official web portal to all federal, state and local government web resources and services.